createdAt,value
2023-04-30T00:00:53.015Z,14.47
2023-04-30T00:03:19.780Z,14.58
2023-04-30T00:05:50.849Z,14.06
2023-04-30T00:08:17.523Z,14.25
2023-04-30T00:10:44.149Z,14.45
2023-04-30T00:13:10.752Z,14.35
2023-04-30T00:15:37.269Z,14.49
2023-04-30T00:18:04.702Z,14.42
2023-04-30T00:20:31.444Z,14.20
2023-04-30T00:22:57.990Z,14.31
2023-04-30T00:25:24.657Z,14.57
2023-04-30T00:27:51.256Z,14.04
2023-04-30T00:30:17.908Z,14.62
2023-04-30T00:32:45.993Z,14.41
2023-04-30T00:35:12.824Z,13.79
2023-04-30T00:37:39.447Z,13.92
2023-04-30T00:40:06.824Z,14.06
2023-04-30T00:42:33.452Z,13.92
2023-04-30T00:45:00.004Z,13.80
2023-04-30T00:47:26.615Z,13.57
2023-04-30T00:49:53.711Z,13.42
2023-04-30T00:52:20.498Z,13.43
2023-04-30T00:54:47.285Z,13.37
2023-04-30T00:57:14.488Z,13.43
2023-04-30T00:59:42.238Z,13.49
2023-04-30T01:02:09.757Z,13.42
2023-04-30T01:04:36.517Z,13.12
2023-04-30T01:07:03.433Z,12.95
2023-04-30T01:09:30.229Z,12.91
2023-04-30T01:12:09.740Z,13.07
2023-04-30T01:14:56.404Z,12.90
2023-04-30T01:17:30.180Z,12.91
2023-04-30T01:19:57.413Z,13.22
2023-04-30T01:22:27.027Z,13.00
2023-04-30T01:25:32.540Z,12.90
2023-04-30T01:28:05.592Z,12.56
2023-04-30T01:30:33.362Z,12.67
2023-04-30T01:33:00.712Z,12.22
2023-04-30T01:36:08.991Z,12.65
2023-04-30T01:39:01.979Z,12.48
2023-04-30T01:41:38.734Z,12.71
2023-04-30T01:44:26.978Z,12.74
2023-04-30T01:47:06.437Z,12.66
2023-04-30T01:49:32.976Z,12.57
2023-04-30T01:52:35.897Z,12.65
2023-04-30T01:55:07.174Z,12.78
2023-04-30T01:57:52.261Z,12.27
2023-04-30T02:00:19.147Z,12.94
2023-04-30T02:02:45.787Z,13.14
2023-04-30T02:05:12.473Z,12.81
2023-04-30T02:07:44.730Z,13.22
2023-04-30T02:10:14.611Z,13.00
2023-04-30T02:12:41.431Z,13.14
2023-04-30T02:15:08.768Z,12.92
2023-04-30T02:17:35.579Z,12.41
2023-04-30T02:20:02.782Z,12.73
2023-04-30T02:22:29.344Z,13.06
2023-04-30T02:24:57.319Z,13.38
2023-04-30T02:27:26.023Z,13.13
2023-04-30T02:29:53.712Z,13.10
2023-04-30T02:32:20.459Z,12.36
2023-04-30T02:34:47.028Z,13.26
2023-04-30T02:37:13.649Z,13.01
2023-04-30T02:39:41.197Z,13.47
2023-04-30T02:42:08.012Z,13.13
2023-04-30T02:44:34.758Z,13.40
2023-04-30T02:47:02.534Z,13.31
2023-04-30T02:49:29.686Z,13.65
2023-04-30T02:51:56.266Z,13.26
2023-04-30T02:54:22.913Z,12.39
2023-04-30T02:56:49.694Z,12.69
2023-04-30T02:59:16.257Z,12.84
2023-04-30T03:01:43.129Z,12.70
2023-04-30T03:04:09.820Z,12.76
2023-04-30T03:06:36.359Z,12.83
2023-04-30T03:09:03.548Z,12.07
2023-04-30T03:11:30.381Z,13.15
2023-04-30T03:13:56.951Z,12.73
2023-04-30T03:16:23.630Z,12.80
2023-04-30T03:18:50.294Z,12.41
2023-04-30T03:21:16.835Z,12.46
2023-04-30T03:23:43.383Z,12.52
2023-04-30T03:26:09.941Z,12.69
2023-04-30T03:28:36.511Z,12.69
2023-04-30T03:31:05.993Z,12.90
2023-04-30T03:33:33.195Z,12.90
2023-04-30T03:35:59.845Z,12.42
2023-04-30T03:38:26.480Z,12.61
2023-04-30T03:40:53.127Z,12.52
2023-04-30T03:43:19.636Z,12.79
2023-04-30T03:45:46.496Z,12.95
2023-04-30T03:48:13.404Z,12.92
2023-04-30T03:50:40.018Z,12.98
2023-04-30T03:53:06.556Z,12.88
2023-04-30T03:55:34.018Z,12.80
2023-04-30T03:58:00.728Z,13.52
2023-04-30T04:00:27.364Z,13.33
2023-04-30T04:02:54.938Z,12.96
2023-04-30T04:05:21.688Z,12.61
2023-04-30T04:07:48.275Z,12.20
2023-04-30T04:10:14.887Z,12.55
2023-04-30T04:12:41.554Z,12.68
2023-04-30T04:15:08.975Z,12.90
2023-04-30T04:17:35.588Z,13.30
2023-04-30T04:20:02.128Z,12.86
2023-04-30T04:22:28.741Z,12.91
2023-04-30T04:24:55.351Z,13.36
2023-04-30T04:27:21.998Z,13.57
2023-04-30T04:29:48.572Z,13.20
2023-04-30T04:32:15.740Z,13.31
2023-04-30T04:34:46.031Z,13.43
2023-04-30T04:37:12.587Z,13.09
2023-04-30T04:39:39.162Z,13.02
2023-04-30T04:42:05.763Z,12.64
2023-04-30T04:44:32.933Z,12.96
2023-04-30T04:46:59.431Z,12.96
2023-04-30T04:49:25.911Z,13.19
2023-04-30T04:51:53.347Z,13.72
2023-04-30T04:54:19.862Z,14.55
2023-04-30T04:56:46.575Z,14.47
2023-04-30T04:59:13.509Z,13.70
2023-04-30T05:01:40.125Z,13.97
2023-04-30T05:04:06.913Z,14.84
2023-04-30T05:06:33.541Z,14.43
2023-04-30T05:09:00.109Z,15.60
2023-04-30T05:11:27.114Z,15.31
2023-04-30T05:13:53.735Z,16.73
2023-04-30T05:16:20.292Z,17.63
2023-04-30T05:18:46.860Z,16.97
2023-04-30T05:21:13.404Z,17.42
2023-04-30T05:23:40.009Z,16.52
2023-04-30T05:26:06.785Z,18.02
2023-04-30T05:28:33.827Z,19.08
2023-04-30T05:31:00.481Z,18.06
2023-04-30T05:33:27.315Z,17.69
2023-04-30T05:35:53.872Z,17.98
2023-04-30T05:38:20.456Z,18.23
2023-04-30T05:40:46.966Z,19.35
2023-04-30T05:43:13.610Z,19.19
2023-04-30T05:45:40.183Z,20.02
2023-04-30T05:48:06.762Z,17.44
2023-04-30T05:50:33.491Z,19.92
2023-04-30T05:53:00.623Z,18.85
2023-04-30T05:55:27.150Z,17.60
2023-04-30T05:57:53.747Z,16.94
2023-04-30T06:00:20.295Z,19.51
2023-04-30T06:02:47.332Z,21.33
2023-04-30T06:05:16.127Z,18.96
2023-04-30T06:07:43.113Z,19.49
2023-04-30T06:10:10.123Z,17.09
2023-04-30T06:12:36.786Z,20.84
2023-04-30T06:15:03.731Z,17.83
2023-04-30T06:17:30.948Z,17.90
2023-04-30T06:20:00.777Z,19.78
2023-04-30T06:22:27.353Z,18.42
2023-04-30T06:24:54.113Z,18.39
2023-04-30T06:27:20.672Z,19.60
2023-04-30T06:29:47.257Z,18.68
2023-04-30T06:32:13.849Z,21.26
2023-04-30T06:34:40.539Z,19.43
2023-04-30T06:37:07.154Z,18.63
2023-04-30T06:39:33.701Z,17.58
2023-04-30T06:42:00.281Z,18.57
2023-04-30T06:44:27.979Z,18.52
2023-04-30T06:46:54.674Z,18.56
2023-04-30T06:49:21.289Z,18.12
2023-04-30T06:51:47.878Z,18.90
2023-04-30T06:54:14.497Z,19.49
2023-04-30T06:56:41.418Z,21.69
2023-04-30T06:59:08.723Z,23.22
2023-04-30T07:01:35.380Z,20.74
2023-04-30T07:04:02.253Z,22.65
2023-04-30T07:06:28.954Z,21.35
2023-04-30T07:08:55.771Z,24.14
2023-04-30T07:11:22.429Z,23.76
2023-04-30T07:13:49.004Z,25.56
2023-04-30T07:16:17.019Z,20.13
2023-04-30T07:18:43.736Z,24.41
2023-04-30T07:21:10.275Z,26.53
2023-04-30T07:23:36.833Z,21.95
2023-04-30T07:26:03.456Z,23.25
2023-04-30T07:28:30.057Z,20.79
2023-04-30T07:30:56.728Z,24.29
2023-04-30T07:33:23.371Z,23.84
2023-04-30T07:35:50.082Z,25.28
2023-04-30T07:38:18.895Z,28.47
2023-04-30T07:40:45.546Z,21.37
2023-04-30T07:43:12.359Z,23.51
2023-04-30T07:45:38.885Z,22.66
2023-04-30T07:48:05.674Z,25.43
2023-04-30T07:50:34.923Z,22.65
2023-04-30T07:53:02.565Z,24.27
2023-04-30T07:55:29.253Z,24.83
2023-04-30T07:57:55.879Z,23.74
2023-04-30T08:00:22.677Z,26.28
2023-04-30T08:02:50.568Z,29.06
2023-04-30T08:05:17.505Z,30.99
2023-04-30T08:07:44.642Z,30.30
2023-04-30T08:10:12.659Z,25.12
2023-04-30T08:12:39.305Z,25.54
2023-04-30T08:15:07.517Z,25.94
2023-04-30T08:17:34.896Z,26.44
2023-04-30T08:20:03.000Z,24.84
2023-04-30T08:22:29.833Z,26.29
2023-04-30T08:24:56.422Z,24.25
2023-04-30T08:27:23.511Z,25.54
2023-04-30T08:29:50.076Z,25.97
2023-04-30T08:32:19.533Z,27.11
2023-04-30T08:34:46.390Z,27.31
2023-04-30T08:37:12.934Z,27.80
2023-04-30T08:39:39.540Z,30.62
2023-04-30T08:42:12.808Z,31.51
2023-04-30T08:44:42.239Z,25.50
2023-04-30T08:47:13.342Z,27.62
2023-04-30T08:49:41.086Z,27.92
2023-04-30T08:52:08.388Z,30.37
2023-04-30T08:54:36.175Z,27.49
2023-04-30T08:57:03.609Z,28.15
2023-04-30T08:59:30.444Z,26.25
2023-04-30T09:01:57.156Z,24.65
2023-04-30T09:04:23.794Z,28.09
2023-04-30T09:06:53.409Z,25.79
2023-04-30T09:09:20.001Z,27.23
2023-04-30T09:11:46.560Z,27.80
2023-04-30T09:14:23.766Z,28.79
2023-04-30T09:16:52.665Z,27.89
2023-04-30T09:19:29.900Z,28.77
2023-04-30T09:21:57.140Z,30.78
2023-04-30T09:24:24.399Z,32.40
2023-04-30T09:26:51.520Z,28.99
2023-04-30T09:29:18.220Z,28.16
2023-04-30T09:31:47.169Z,28.39
2023-04-30T09:34:15.164Z,28.26
2023-04-30T09:36:54.812Z,29.38
2023-04-30T09:39:21.812Z,30.03
2023-04-30T09:41:50.332Z,28.36
2023-04-30T09:44:28.356Z,30.09
2023-04-30T09:46:57.737Z,27.20
2023-04-30T09:49:25.212Z,30.26
2023-04-30T09:51:59.320Z,29.95
2023-04-30T09:54:28.711Z,31.53
2023-04-30T09:56:58.809Z,33.10
2023-04-30T09:59:31.503Z,32.22
2023-04-30T10:02:01.177Z,32.82
2023-04-30T10:04:41.836Z,32.99
2023-04-30T10:07:22.119Z,28.48
2023-04-30T10:10:11.210Z,27.77
2023-04-30T10:12:50.752Z,24.73
2023-04-30T10:15:20.653Z,29.01
2023-04-30T10:17:53.793Z,29.05
2023-04-30T10:20:22.634Z,29.35
2023-04-30T10:22:49.971Z,32.22
2023-04-30T10:25:17.196Z,32.04
2023-04-30T10:27:43.869Z,31.03
2023-04-30T10:30:11.889Z,29.15
2023-04-30T10:32:51.222Z,31.13
2023-04-30T10:35:24.321Z,30.57
2023-04-30T10:38:12.111Z,28.42
2023-04-30T10:40:38.758Z,27.34
2023-04-30T10:43:05.684Z,30.65
2023-04-30T10:45:37.825Z,29.76
2023-04-30T10:48:06.270Z,30.69
2023-04-30T10:50:33.209Z,30.23
2023-04-30T10:53:03.865Z,29.95
2023-04-30T10:55:31.519Z,28.42
2023-04-30T10:57:59.124Z,25.97
2023-04-30T11:00:28.012Z,28.39
2023-04-30T11:03:03.224Z,27.70
2023-04-30T11:05:39.865Z,27.50
2023-04-30T11:08:11.328Z,25.01
2023-04-30T11:10:37.910Z,24.71
2023-04-30T11:13:07.363Z,25.13
2023-04-30T11:15:40.234Z,26.02
2023-04-30T11:18:07.973Z,25.13
2023-04-30T11:20:40.137Z,26.27
2023-04-30T11:23:12.272Z,24.84
2023-04-30T11:25:41.155Z,25.52
2023-04-30T11:28:13.028Z,27.68
2023-04-30T11:30:40.102Z,27.32
2023-04-30T11:33:06.827Z,28.48
2023-04-30T11:35:33.678Z,29.04
2023-04-30T11:38:01.460Z,25.95
2023-04-30T11:40:29.071Z,27.38
2023-04-30T11:42:55.739Z,27.85
2023-04-30T11:45:23.314Z,27.18
2023-04-30T11:47:52.464Z,26.29
2023-04-30T11:50:27.051Z,26.27
2023-04-30T11:52:55.194Z,25.98
2023-04-30T11:55:23.737Z,26.60
2023-04-30T11:57:55.806Z,26.14
2023-04-30T12:00:27.733Z,26.85
2023-04-30T12:02:55.444Z,25.59
2023-04-30T12:05:24.063Z,26.24
2023-04-30T12:07:55.981Z,26.65
2023-04-30T12:10:23.584Z,27.14
2023-04-30T12:12:52.848Z,25.33
2023-04-30T12:15:26.706Z,25.88
2023-04-30T12:17:55.924Z,26.56
2023-04-30T12:20:24.816Z,26.97
2023-04-30T12:22:51.747Z,26.34
2023-04-30T12:25:20.167Z,26.18
2023-04-30T12:27:48.412Z,26.73
2023-04-30T12:30:15.363Z,25.59
2023-04-30T12:32:48.365Z,25.74
2023-04-30T12:35:19.740Z,25.86
2023-04-30T12:38:01.075Z,25.33
2023-04-30T12:40:28.240Z,26.53
2023-04-30T12:43:02.087Z,25.02
2023-04-30T12:45:46.606Z,25.62
2023-04-30T12:48:14.445Z,25.04
2023-04-30T12:50:41.273Z,24.79
2023-04-30T12:53:08.057Z,25.06
2023-04-30T12:55:37.312Z,24.68
2023-04-30T12:58:09.353Z,24.87
2023-04-30T13:00:45.127Z,25.48
2023-04-30T13:03:13.233Z,24.72
2023-04-30T13:05:41.841Z,24.72
2023-04-30T13:08:09.466Z,25.59
2023-04-30T13:10:36.000Z,26.04
2023-04-30T13:13:02.566Z,25.89
2023-04-30T13:15:29.191Z,27.24
2023-04-30T13:17:56.160Z,27.30
2023-04-30T13:20:24.771Z,26.83
2023-04-30T13:22:51.941Z,27.60
2023-04-30T13:25:18.559Z,27.98
2023-04-30T13:27:45.228Z,26.33
2023-04-30T13:30:12.405Z,25.90
2023-04-30T13:32:39.010Z,25.02
2023-04-30T13:35:06.359Z,25.01
2023-04-30T13:37:32.962Z,24.55
2023-04-30T13:40:01.429Z,25.19
2023-04-30T13:42:28.235Z,25.31
2023-04-30T13:44:54.772Z,24.94
2023-04-30T13:47:21.774Z,25.23
2023-04-30T13:49:48.385Z,25.62
2023-04-30T13:52:15.045Z,25.13
2023-04-30T13:54:42.063Z,24.95
2023-04-30T13:57:08.660Z,25.32
2023-04-30T13:59:35.363Z,25.28
2023-04-30T14:02:02.026Z,25.51
2023-04-30T14:04:28.689Z,24.19
2023-04-30T14:06:56.646Z,24.48
2023-04-30T14:09:23.507Z,24.13
2023-04-30T14:11:51.083Z,24.04
2023-04-30T14:14:17.623Z,24.21
2023-04-30T14:16:44.807Z,24.47
2023-04-30T14:19:11.520Z,24.87
2023-04-30T14:21:38.115Z,24.12
2023-04-30T14:24:05.040Z,24.43
2023-04-30T14:26:31.711Z,24.22
2023-04-30T14:28:58.329Z,24.04
2023-04-30T14:31:25.062Z,24.12
2023-04-30T14:33:51.612Z,23.79
2023-04-30T14:36:19.577Z,23.90
2023-04-30T14:38:46.181Z,24.21
2023-04-30T14:41:13.244Z,24.66
2023-04-30T14:43:41.173Z,25.04
2023-04-30T14:46:07.910Z,24.96
2023-04-30T14:48:35.955Z,24.67
2023-04-30T14:51:02.571Z,25.14
2023-04-30T14:53:29.291Z,24.51
2023-04-30T14:55:56.310Z,24.13
2023-04-30T14:58:22.970Z,24.05
2023-04-30T15:00:50.134Z,23.68
2023-04-30T15:03:16.816Z,23.56
2023-04-30T15:05:43.893Z,23.01
2023-04-30T15:08:10.757Z,22.91
2023-04-30T15:10:37.335Z,23.27
2023-04-30T15:13:04.134Z,23.07
2023-04-30T15:15:30.921Z,23.67
2023-04-30T15:17:58.428Z,23.80
2023-04-30T15:20:25.189Z,23.64
2023-04-30T15:22:53.762Z,23.28
2023-04-30T15:25:26.820Z,23.66
2023-04-30T15:27:54.579Z,23.86
2023-04-30T15:30:21.812Z,23.83
2023-04-30T15:32:50.088Z,23.41
2023-04-30T15:35:17.263Z,23.38
2023-04-30T15:37:44.792Z,23.10
2023-04-30T15:40:15.169Z,23.23
2023-04-30T15:42:41.971Z,23.06
2023-04-30T15:45:09.964Z,22.66
2023-04-30T15:47:38.290Z,22.71
2023-04-30T15:50:05.546Z,23.09
2023-04-30T15:52:32.205Z,23.30
2023-04-30T15:54:58.935Z,23.03
2023-04-30T15:57:25.683Z,23.35
2023-04-30T15:59:52.742Z,23.15
2023-04-30T16:02:19.621Z,23.51
2023-04-30T16:04:46.298Z,23.50
2023-04-30T16:07:13.129Z,23.63
2023-04-30T16:09:39.822Z,23.05
2023-04-30T16:12:07.072Z,22.64
2023-04-30T16:14:33.671Z,22.88
2023-04-30T16:17:00.361Z,22.91
2023-04-30T16:19:27.010Z,22.98
2023-04-30T16:21:54.417Z,23.14
2023-04-30T16:24:21.252Z,23.36
2023-04-30T16:26:47.838Z,22.38
2023-04-30T16:29:15.194Z,22.45
2023-04-30T16:31:42.127Z,22.36
2023-04-30T16:34:12.022Z,22.81
2023-04-30T16:36:38.871Z,22.51
2023-04-30T16:39:05.870Z,22.88
2023-04-30T16:41:32.533Z,22.45
2023-04-30T16:43:59.225Z,22.40
2023-04-30T16:46:25.925Z,22.97
2023-04-30T16:48:52.704Z,22.76
2023-04-30T16:51:19.399Z,22.38
2023-04-30T16:53:45.995Z,22.85
2023-04-30T16:56:12.621Z,22.50
2023-04-30T16:58:39.289Z,22.42
2023-04-30T17:01:05.983Z,21.84
2023-04-30T17:03:34.769Z,21.99
2023-04-30T17:06:01.687Z,21.71
2023-04-30T17:08:28.309Z,21.93
2023-04-30T17:10:54.909Z,21.73
2023-04-30T17:13:21.500Z,21.65
2023-04-30T17:15:48.765Z,21.81
2023-04-30T17:18:19.399Z,21.74
2023-04-30T17:20:46.422Z,21.80
2023-04-30T17:23:12.944Z,21.65
2023-04-30T17:25:39.516Z,21.63
2023-04-30T17:28:06.195Z,21.68
2023-04-30T17:30:32.769Z,21.45
2023-04-30T17:33:00.355Z,21.93
2023-04-30T17:35:27.540Z,21.74
2023-04-30T17:37:54.555Z,21.36
2023-04-30T17:40:21.107Z,21.51
2023-04-30T17:42:47.754Z,21.21
2023-04-30T17:45:14.370Z,21.33
2023-04-30T17:47:41.061Z,20.87
2023-04-30T17:50:08.822Z,20.74
2023-04-30T17:52:38.390Z,20.74
2023-04-30T17:55:08.391Z,20.39
2023-04-30T17:57:35.570Z,20.38
2023-04-30T18:00:03.702Z,20.40
2023-04-30T18:02:30.469Z,20.32
2023-04-30T18:04:57.155Z,20.26
2023-04-30T18:07:24.108Z,20.38
2023-04-30T18:09:51.441Z,20.45
2023-04-30T18:12:18.567Z,20.31
2023-04-30T18:14:45.261Z,20.13
2023-04-30T18:17:11.856Z,20.03
2023-04-30T18:19:44.494Z,19.90
2023-04-30T18:22:14.091Z,19.70
2023-04-30T18:24:41.397Z,19.81
2023-04-30T18:27:08.400Z,19.74
2023-04-30T18:29:35.399Z,19.46
2023-04-30T18:32:02.251Z,19.60
2023-04-30T18:34:28.964Z,19.31
2023-04-30T18:36:55.737Z,19.14
2023-04-30T18:39:22.452Z,19.13
2023-04-30T18:41:49.406Z,19.17
2023-04-30T18:44:16.390Z,19.02
2023-04-30T18:46:43.160Z,19.02
2023-04-30T18:49:09.773Z,18.71
2023-04-30T18:51:37.828Z,18.89
2023-04-30T18:54:04.464Z,19.04
2023-04-30T18:56:31.128Z,18.80
2023-04-30T18:58:57.825Z,18.82
2023-04-30T19:01:27.389Z,18.81
2023-04-30T19:03:54.343Z,18.67
2023-04-30T19:06:21.168Z,18.61
2023-04-30T19:08:47.935Z,18.56
2023-04-30T19:11:15.109Z,18.61
2023-04-30T19:13:41.639Z,18.55
2023-04-30T19:16:08.291Z,18.70
2023-04-30T19:18:35.224Z,18.46
2023-04-30T19:21:02.290Z,18.29
2023-04-30T19:23:32.402Z,18.11
2023-04-30T19:25:59.678Z,18.04
2023-04-30T19:28:26.439Z,17.93
2023-04-30T19:30:54.733Z,17.88
2023-04-30T19:33:22.225Z,17.55
2023-04-30T19:35:50.239Z,18.02
2023-04-30T19:38:17.474Z,17.73
2023-04-30T19:40:48.740Z,17.67
2023-04-30T19:43:16.186Z,18.17
2023-04-30T19:45:47.546Z,17.64
2023-04-30T19:48:14.818Z,17.59
2023-04-30T19:50:43.159Z,17.64
2023-04-30T19:53:10.093Z,17.67
2023-04-30T19:55:36.827Z,17.45
2023-04-30T19:58:04.841Z,17.62
2023-04-30T20:00:33.836Z,17.35
2023-04-30T20:03:04.259Z,17.46
2023-04-30T20:05:36.206Z,17.06
2023-04-30T20:08:04.608Z,17.21
2023-04-30T20:10:31.842Z,17.20
2023-04-30T20:12:58.507Z,17.25
2023-04-30T20:15:25.224Z,17.05
2023-04-30T20:17:53.001Z,17.05
2023-04-30T20:20:21.176Z,16.90
2023-04-30T20:22:50.894Z,17.10
2023-04-30T20:25:18.760Z,17.25
2023-04-30T20:27:45.361Z,17.05
2023-04-30T20:30:13.279Z,16.89
2023-04-30T20:32:40.998Z,16.65
2023-04-30T20:35:08.368Z,16.83
2023-04-30T20:37:36.056Z,17.04
2023-04-30T20:40:03.873Z,16.98
2023-04-30T20:42:31.167Z,17.15
2023-04-30T20:44:57.727Z,17.18
2023-04-30T20:47:24.353Z,16.99
2023-04-30T20:49:51.165Z,17.09
2023-04-30T20:52:18.655Z,17.17
2023-04-30T20:54:45.814Z,16.74
2023-04-30T20:57:12.805Z,16.84
2023-04-30T20:59:39.581Z,16.70
2023-04-30T21:02:06.471Z,16.76
2023-04-30T21:04:33.136Z,16.88
2023-04-30T21:06:59.706Z,16.73
2023-04-30T21:09:26.317Z,16.42
2023-04-30T21:11:53.236Z,16.37
2023-04-30T21:14:21.139Z,16.62
2023-04-30T21:16:47.777Z,16.47
2023-04-30T21:19:14.430Z,16.51
2023-04-30T21:21:41.159Z,16.54
2023-04-30T21:24:08.753Z,16.50
2023-04-30T21:26:35.388Z,16.78
2023-04-30T21:29:02.886Z,16.61
2023-04-30T21:31:29.728Z,16.72
2023-04-30T21:33:56.417Z,16.49
2023-04-30T21:36:23.440Z,16.29
2023-04-30T21:38:50.054Z,16.53
2023-04-30T21:41:17.202Z,16.34
2023-04-30T21:43:44.098Z,16.33
2023-04-30T21:46:11.099Z,16.31
2023-04-30T21:48:38.400Z,16.32
2023-04-30T21:51:16.795Z,16.39
2023-04-30T21:53:44.565Z,16.35
2023-04-30T21:56:11.670Z,16.16
2023-04-30T21:58:38.972Z,16.20
2023-04-30T22:01:05.616Z,16.42
2023-04-30T22:03:32.666Z,15.96
2023-04-30T22:05:59.392Z,16.05
2023-04-30T22:08:26.090Z,15.98
2023-04-30T22:11:00.496Z,15.91
2023-04-30T22:13:30.429Z,15.79
2023-04-30T22:15:57.169Z,15.97
2023-04-30T22:18:24.654Z,15.96
2023-04-30T22:20:52.343Z,15.83
2023-04-30T22:23:21.417Z,15.81
2023-04-30T22:25:48.331Z,15.65
2023-04-30T22:28:19.210Z,15.68
2023-04-30T22:30:46.132Z,15.82
2023-04-30T22:33:13.046Z,15.74
2023-04-30T22:35:39.794Z,15.75
2023-04-30T22:38:07.251Z,15.82
2023-04-30T22:40:35.126Z,15.75
2023-04-30T22:43:02.285Z,16.02
2023-04-30T22:45:32.717Z,15.82
2023-04-30T22:48:01.515Z,16.15
2023-04-30T22:50:30.040Z,16.11
2023-04-30T22:52:56.799Z,15.69
2023-04-30T22:55:25.466Z,15.77
2023-04-30T22:57:52.031Z,16.10
2023-04-30T23:00:20.374Z,16.00
2023-04-30T23:02:47.034Z,15.99
2023-04-30T23:05:13.676Z,15.56
2023-04-30T23:07:40.305Z,15.90
2023-04-30T23:10:07.157Z,15.98
2023-04-30T23:12:36.665Z,15.87
2023-04-30T23:15:03.966Z,16.00
2023-04-30T23:17:30.565Z,16.00
2023-04-30T23:19:57.843Z,15.97
2023-04-30T23:22:24.837Z,15.76
2023-04-30T23:24:51.810Z,15.81
2023-04-30T23:27:18.857Z,15.98
2023-04-30T23:29:45.425Z,16.06
2023-04-30T23:32:12.028Z,16.03
2023-04-30T23:34:38.625Z,16.09
2023-04-30T23:37:05.182Z,15.85
2023-04-30T23:39:32.261Z,15.93
2023-04-30T23:41:58.858Z,15.72
2023-04-30T23:44:25.594Z,15.64
2023-04-30T23:46:52.281Z,15.73
2023-04-30T23:49:18.949Z,15.70
2023-04-30T23:51:45.737Z,15.73
2023-04-30T23:54:12.392Z,15.92
2023-04-30T23:56:39.036Z,15.96
2023-04-30T23:59:05.597Z,15.89
